createdAt,value
2022-08-30T00:02:05.901Z,101769.09
2022-08-30T00:04:35.017Z,101761.69
2022-08-30T00:07:03.793Z,101757.72
2022-08-30T00:09:32.027Z,101770.13
2022-08-30T00:11:58.866Z,101772.44
2022-08-30T00:14:27.560Z,101772.44
2022-08-30T00:16:54.603Z,101767.00
2022-08-30T00:19:21.435Z,101773.31
2022-08-30T00:21:49.634Z,101765.09
2022-08-30T00:24:16.800Z,101774.50
2022-08-30T00:26:43.718Z,101773.31
2022-08-30T00:29:10.551Z,101775.81
2022-08-30T00:31:37.370Z,101769.00
2022-08-30T00:34:04.181Z,101769.81
2022-08-30T00:36:30.984Z,101764.56
2022-08-30T00:38:59.100Z,101760.59
2022-08-30T00:41:26.023Z,101757.44
2022-08-30T00:43:52.854Z,101754.97
2022-08-30T00:46:19.869Z,101758.25
2022-08-30T00:48:49.460Z,101751.88
2022-08-30T00:51:18.105Z,101757.28
2022-08-30T00:53:49.647Z,101754.16
2022-08-30T00:56:18.928Z,101757.50
2022-08-30T00:58:50.288Z,101759.00
2022-08-30T01:01:18.174Z,101764.88
2022-08-30T01:03:45.751Z,101763.81
2022-08-30T01:06:16.668Z,101774.19
2022-08-30T01:08:44.439Z,101768.94
2022-08-30T01:11:12.811Z,101768.06
2022-08-30T01:13:41.415Z,101759.41
2022-08-30T01:16:08.957Z,101757.78
2022-08-30T01:18:37.187Z,101764.22
2022-08-30T01:21:15.868Z,101770.19
2022-08-30T01:23:46.160Z,101758.47
2022-08-30T01:26:15.916Z,101760.38
2022-08-30T01:28:44.504Z,101756.41
2022-08-30T01:31:11.799Z,101760.19
2022-08-30T01:33:38.708Z,101747.66
2022-08-30T01:36:11.359Z,101754.47
2022-08-30T01:38:43.614Z,101755.31
2022-08-30T01:41:15.530Z,101755.31
2022-08-30T01:43:43.835Z,101759.00
2022-08-30T01:46:12.022Z,101745.09
2022-08-30T01:48:40.045Z,101756.81
2022-08-30T01:51:10.848Z,101749.91
2022-08-30T01:53:38.142Z,101750.09
2022-08-30T01:56:05.668Z,101756.72
2022-08-30T01:58:33.824Z,101760.56
2022-08-30T02:01:00.773Z,101757.63
2022-08-30T02:03:32.964Z,101753.13
2022-08-30T02:06:03.662Z,101756.78
2022-08-30T02:08:30.554Z,101766.19
2022-08-30T02:11:01.310Z,101755.28
2022-08-30T02:13:28.871Z,101757.56
2022-08-30T02:15:57.401Z,101746.03
2022-08-30T02:18:25.852Z,101750.34
2022-08-30T02:20:52.720Z,101747.94
2022-08-30T02:23:19.650Z,101744.75
2022-08-30T02:25:46.979Z,101743.81
2022-08-30T02:28:15.745Z,101740.31
2022-08-30T02:30:45.800Z,101729.91
2022-08-30T02:33:14.842Z,101733.91
2022-08-30T02:35:41.970Z,101732.09
2022-08-30T02:38:10.401Z,101726.84
2022-08-30T02:40:39.176Z,101722.84
2022-08-30T02:43:06.651Z,101730.72
2022-08-30T02:45:33.588Z,101733.22
2022-08-30T02:48:00.452Z,101732.41
2022-08-30T02:50:28.692Z,101728.13
2022-08-30T02:52:55.712Z,101731.41
2022-08-30T02:55:22.923Z,101721.84
2022-08-30T02:57:49.715Z,101724.44
2022-08-30T03:00:19.658Z,101724.09
2022-08-30T03:02:46.938Z,101723.75
2022-08-30T03:05:16.016Z,101726.91
2022-08-30T03:07:45.698Z,101724.25
2022-08-30T03:10:14.046Z,101720.69
2022-08-30T03:12:41.586Z,101721.22
2022-08-30T03:15:10.151Z,101730.09
2022-08-30T03:17:36.945Z,101725.16
2022-08-30T03:20:04.293Z,101722.84
2022-08-30T03:22:31.121Z,101723.97
2022-08-30T03:25:01.395Z,101725.97
2022-08-30T03:27:29.672Z,101723.63
2022-08-30T03:29:56.935Z,101721.31
2022-08-30T03:32:24.272Z,101714.69
2022-08-30T03:34:51.176Z,101718.75
2022-08-30T03:37:18.106Z,101711.66
2022-08-30T03:39:45.629Z,101716.56
2022-08-30T03:42:13.886Z,101716.13
2022-08-30T03:44:40.634Z,101715.63
2022-08-30T03:47:08.615Z,101721.25
2022-08-30T03:49:36.072Z,101711.88
2022-08-30T03:52:03.510Z,101712.53
2022-08-30T03:54:30.952Z,101706.84
2022-08-30T03:56:57.982Z,101704.41
2022-08-30T03:59:26.268Z,101706.03
2022-08-30T04:01:53.290Z,101697.28
2022-08-30T04:04:21.037Z,101705.56
2022-08-30T04:06:48.651Z,101699.41
2022-08-30T04:09:15.464Z,101704.72
2022-08-30T04:11:42.540Z,101711.19
2022-08-30T04:14:09.840Z,101705.56
2022-08-30T04:16:38.087Z,101706.59
2022-08-30T04:19:05.104Z,101709.72
2022-08-30T04:21:31.941Z,101706.31
2022-08-30T04:23:59.019Z,101707.81
2022-08-30T04:26:29.300Z,101706.81
2022-08-30T04:28:56.686Z,101711.63
2022-08-30T04:31:23.644Z,101714.78
2022-08-30T04:33:51.840Z,101713.13
2022-08-30T04:36:18.752Z,101715.47
2022-08-30T04:38:45.624Z,101712.44
2022-08-30T04:41:16.422Z,101718.53
2022-08-30T04:43:44.315Z,101717.88
2022-08-30T04:46:12.877Z,101713.06
2022-08-30T04:48:40.430Z,101717.06
2022-08-30T04:51:10.989Z,101714.56
2022-08-30T04:53:38.439Z,101724.16
2022-08-30T04:56:08.399Z,101728.28
2022-08-30T04:58:35.355Z,101725.28
2022-08-30T05:01:02.586Z,101725.41
2022-08-30T05:03:29.456Z,101725.06
2022-08-30T05:05:56.357Z,101725.75
2022-08-30T05:08:25.015Z,101723.19
2022-08-30T05:10:52.857Z,101722.63
2022-08-30T05:13:24.272Z,101723.00
2022-08-30T05:16:05.217Z,101734.75
2022-08-30T05:18:32.587Z,101731.25
2022-08-30T05:21:08.597Z,101731.59
2022-08-30T05:23:37.269Z,101730.03
2022-08-30T05:26:08.495Z,101725.25
2022-08-30T05:28:35.974Z,101732.84
2022-08-30T05:31:03.898Z,101728.59
2022-08-30T05:33:30.778Z,101726.59
2022-08-30T05:36:06.266Z,101727.34
2022-08-30T05:38:33.122Z,101728.09
2022-08-30T05:41:05.156Z,101720.41
2022-08-30T05:43:36.409Z,101722.22
2022-08-30T05:46:05.516Z,101738.16
2022-08-30T05:48:33.368Z,101733.25
2022-08-30T05:51:05.096Z,101733.25
2022-08-30T05:53:32.022Z,101729.75
2022-08-30T05:56:00.556Z,101719.34
2022-08-30T05:58:28.865Z,101730.25
2022-08-30T06:00:55.730Z,101735.28
2022-08-30T06:03:22.811Z,101736.03
2022-08-30T06:05:49.774Z,101729.06
2022-08-30T06:08:16.704Z,101732.59
2022-08-30T06:10:43.668Z,101729.53
2022-08-30T06:13:10.596Z,101730.44
2022-08-30T06:15:38.864Z,101735.91
2022-08-30T06:18:06.021Z,101732.50
2022-08-30T06:20:32.795Z,101733.22
2022-08-30T06:22:59.674Z,101734.03
2022-08-30T06:25:26.444Z,101735.69
2022-08-30T06:28:08.294Z,101725.16
2022-08-30T06:30:35.185Z,101733.56
2022-08-30T06:33:03.471Z,101739.88
2022-08-30T06:35:37.998Z,101738.97
2022-08-30T06:38:09.226Z,101739.22
2022-08-30T06:40:36.783Z,101736.16
2022-08-30T06:43:03.626Z,101733.88
2022-08-30T06:45:31.182Z,101733.38
2022-08-30T06:50:32.312Z,101734.78
2022-08-30T06:53:05.668Z,101738.19
2022-08-30T06:55:33.521Z,101739.56
2022-08-30T06:58:00.642Z,101739.13
2022-08-30T07:00:28.975Z,101738.50
2022-08-30T07:02:57.045Z,101736.78
2022-08-30T07:05:23.945Z,101736.31
2022-08-30T07:07:54.260Z,101739.66
2022-08-30T07:10:21.787Z,101749.31
2022-08-30T07:12:49.024Z,101746.16
2022-08-30T07:15:16.405Z,101749.94
2022-08-30T07:18:01.697Z,101746.69
2022-08-30T07:20:40.252Z,101741.91
2022-08-30T07:23:09.853Z,101736.81
2022-08-30T07:25:37.297Z,101736.94
2022-08-30T07:28:04.754Z,101733.94
2022-08-30T07:30:32.001Z,101741.56
2022-08-30T07:32:58.861Z,101740.75
2022-08-30T07:35:25.764Z,101741.06
2022-08-30T07:37:52.794Z,101737.50
2022-08-30T07:40:21.427Z,101730.78
2022-08-30T07:42:48.278Z,101735.69
2022-08-30T07:45:15.051Z,101729.78
2022-08-30T07:47:42.051Z,101737.06
2022-08-30T07:50:09.509Z,101735.38
2022-08-30T07:55:10.111Z,101744.22
2022-08-30T07:57:38.372Z,101740.28
2022-08-30T08:00:06.607Z,101744.72
2022-08-30T08:02:33.721Z,101741.94
2022-08-30T08:05:00.901Z,101740.13
2022-08-30T08:07:27.829Z,101747.44
2022-08-30T08:09:54.626Z,101743.06
2022-08-30T08:12:21.692Z,101746.69
2022-08-30T08:14:50.540Z,101748.56
2022-08-30T08:17:17.406Z,101748.84
2022-08-30T08:19:44.204Z,101752.19
2022-08-30T08:22:26.515Z,101757.31
2022-08-30T08:24:53.398Z,101758.97
2022-08-30T08:27:20.204Z,101763.66
2022-08-30T08:29:47.094Z,101766.84
2022-08-30T08:32:15.331Z,101768.03
2022-08-30T08:34:42.205Z,101757.34
2022-08-30T08:37:09.316Z,101756.91
2022-08-30T08:39:36.219Z,101760.38
2022-08-30T08:42:12.369Z,101763.72
2022-08-30T08:44:51.126Z,101766.69
2022-08-30T08:47:29.095Z,101767.31
2022-08-30T08:49:59.885Z,101759.72
2022-08-30T08:53:20.609Z,101768.50
2022-08-30T08:55:58.281Z,101767.56
2022-08-30T08:58:27.712Z,101771.53
2022-08-30T09:00:59.136Z,101768.91
2022-08-30T09:03:30.845Z,101775.66
2022-08-30T09:06:26.921Z,101765.94
2022-08-30T09:09:04.990Z,101758.06
2022-08-30T09:11:39.746Z,101766.41
2022-08-30T09:14:21.316Z,101762.84
2022-08-30T09:17:53.808Z,101763.34
2022-08-30T09:20:52.615Z,101759.91
2022-08-30T09:23:32.581Z,101764.50
2022-08-30T09:26:05.636Z,101764.88
2022-08-30T09:31:47.417Z,101768.75
2022-08-30T09:34:17.738Z,101757.28
2022-08-30T09:36:49.813Z,101769.13
2022-08-30T09:39:19.769Z,101762.56
2022-08-30T09:41:49.240Z,101760.56
2022-08-30T09:44:18.216Z,101760.56
2022-08-30T09:46:59.267Z,101762.63
2022-08-30T09:49:36.892Z,101757.31
2022-08-30T09:52:23.412Z,101762.94
2022-08-30T09:55:03.871Z,101766.69
2022-08-30T09:57:41.309Z,101752.00
2022-08-30T10:00:15.567Z,101756.50
2022-08-30T10:03:03.043Z,101758.53
2022-08-30T10:06:04.729Z,101756.44
2022-08-30T10:08:48.731Z,101752.78
2022-08-30T10:11:22.911Z,101761.38
2022-08-30T10:14:57.919Z,101758.53
2022-08-30T10:17:39.107Z,101767.91
2022-08-30T10:20:16.653Z,101766.69
2022-08-30T10:22:48.365Z,101764.16
2022-08-30T10:25:23.497Z,101765.06
2022-08-30T10:27:58.673Z,101759.34
2022-08-30T10:30:26.939Z,101751.19
2022-08-30T10:33:00.130Z,101745.91
2022-08-30T10:35:36.867Z,101764.22
2022-08-30T10:38:10.251Z,101762.19
2022-08-30T10:41:03.106Z,101754.88
2022-08-30T10:43:39.073Z,101763.00
2022-08-30T10:46:14.344Z,101756.91
2022-08-30T10:48:47.333Z,101758.53
2022-08-30T10:51:21.644Z,101758.56
2022-08-30T10:53:54.665Z,101747.13
2022-08-30T10:56:27.007Z,101745.88
2022-08-30T10:58:55.059Z,101755.69
2022-08-30T11:01:34.683Z,101748.28
2022-08-30T11:04:26.361Z,101754.78
2022-08-30T11:07:05.843Z,101751.97
2022-08-30T11:09:49.943Z,101748.72
2022-08-30T11:12:36.111Z,101755.53
2022-08-30T11:15:16.532Z,101740.56
2022-08-30T11:17:53.209Z,101743.41
2022-08-30T11:20:39.851Z,101743.88
2022-08-30T11:23:27.290Z,101743.84
2022-08-30T11:26:03.102Z,101738.50
2022-08-30T11:29:09.310Z,101738.78
2022-08-30T11:31:42.974Z,101732.63
2022-08-30T11:34:12.784Z,101737.22
2022-08-30T11:37:10.106Z,101741.66
2022-08-30T11:40:05.683Z,101742.66
2022-08-30T11:42:39.106Z,101726.28
2022-08-30T11:45:47.484Z,101745.22
2022-08-30T11:48:53.514Z,101736.28
2022-08-30T11:51:50.865Z,101734.94
2022-08-30T11:54:42.986Z,101734.59
2022-08-30T11:57:18.998Z,101744.47
2022-08-30T12:00:02.186Z,101735.59
2022-08-30T12:02:52.518Z,101735.88
2022-08-30T12:05:59.911Z,101717.56
2022-08-30T12:08:57.737Z,101709.28
2022-08-30T12:12:03.762Z,101719.16
2022-08-30T12:14:40.959Z,101724.34
2022-08-30T12:17:43.046Z,101733.97
2022-08-30T12:20:26.260Z,101729.13
2022-08-30T12:22:54.142Z,101725.81
2022-08-30T12:25:31.945Z,101728.03
2022-08-30T12:28:16.469Z,101715.53
2022-08-30T12:30:46.724Z,101730.31
2022-08-30T12:33:29.542Z,101727.91
2022-08-30T12:35:59.786Z,101717.44
2022-08-30T12:38:28.154Z,101719.84
2022-08-30T12:40:58.251Z,101711.56
2022-08-30T12:43:38.852Z,101710.78
2022-08-30T12:46:12.578Z,101700.38
2022-08-30T12:48:45.249Z,101711.19
2022-08-30T12:51:30.167Z,101706.59
2022-08-30T12:54:08.455Z,101701.50
2022-08-30T12:56:54.236Z,101704.38
2022-08-30T13:00:01.826Z,101716.34
2022-08-30T13:02:43.390Z,101719.47
2022-08-30T13:05:34.354Z,101713.88
2022-08-30T13:08:25.870Z,101714.28
2022-08-30T13:11:04.493Z,101726.88
2022-08-30T13:13:52.057Z,101709.31
2022-08-30T13:16:29.704Z,101710.72
2022-08-30T13:19:24.306Z,101714.38
2022-08-30T13:21:53.939Z,101701.41
2022-08-30T13:24:25.511Z,101714.94
2022-08-30T13:26:54.061Z,101709.03
2022-08-30T13:29:26.227Z,101698.69
2022-08-30T13:31:53.846Z,101707.72
2022-08-30T13:34:22.629Z,101706.97
2022-08-30T13:36:52.822Z,101701.06
2022-08-30T13:39:21.748Z,101718.47
2022-08-30T13:41:50.526Z,101718.25
2022-08-30T13:44:18.500Z,101705.66
2022-08-30T13:46:53.085Z,101706.84
2022-08-30T13:52:26.335Z,101719.28
2022-08-30T13:54:54.438Z,101711.69
2022-08-30T14:00:18.943Z,101696.16
2022-08-30T14:02:53.844Z,101699.84
2022-08-30T14:08:44.548Z,101704.34
2022-08-30T14:11:00.305Z,101706.22
2022-08-30T14:13:29.251Z,101708.31
2022-08-30T14:18:44.748Z,101703.69
2022-08-30T14:21:12.308Z,101699.50
2022-08-30T14:23:39.136Z,101698.53
2022-08-30T14:26:20.052Z,101695.28
2022-08-30T14:28:51.476Z,101693.38
2022-08-30T14:31:20.215Z,101708.38
2022-08-30T14:33:47.757Z,101700.16
2022-08-30T14:36:15.401Z,101706.34
2022-08-30T14:38:43.171Z,101692.06
2022-08-30T14:41:11.016Z,101692.50
2022-08-30T14:43:40.739Z,101695.31
2022-08-30T14:46:10.015Z,101698.28
2022-08-30T14:48:37.633Z,101687.19
2022-08-30T14:51:12.170Z,101690.53
2022-08-30T14:53:39.118Z,101702.78
2022-08-30T14:56:08.402Z,101694.19
2022-08-30T14:58:35.759Z,101689.03
2022-08-30T15:01:08.870Z,101698.22
2022-08-30T15:03:36.150Z,101693.72
2022-08-30T15:06:03.626Z,101691.19
2022-08-30T15:08:30.899Z,101699.75
2022-08-30T15:10:58.716Z,101695.34
2022-08-30T15:13:25.828Z,101698.59
2022-08-30T15:15:52.992Z,101692.38
2022-08-30T15:18:21.647Z,101692.31
2022-08-30T15:20:49.439Z,101683.53
2022-08-30T15:23:16.918Z,101670.63
2022-08-30T15:25:44.272Z,101686.47
2022-08-30T15:28:11.082Z,101680.00
2022-08-30T15:30:37.875Z,101683.22
2022-08-30T15:33:04.716Z,101681.09
2022-08-30T15:35:33.814Z,101683.59
2022-08-30T15:38:00.625Z,101684.13
2022-08-30T15:40:28.998Z,101678.47
2022-08-30T15:42:56.375Z,101682.16
2022-08-30T15:45:23.255Z,101678.94
2022-08-30T15:47:50.016Z,101683.78
2022-08-30T15:50:17.141Z,101667.59
2022-08-30T15:52:45.401Z,101675.25
2022-08-30T15:55:12.349Z,101670.38
2022-08-30T15:57:39.318Z,101662.47
2022-08-30T16:00:09.449Z,101669.03
2022-08-30T16:02:36.446Z,101672.69
2022-08-30T16:05:06.629Z,101673.22
2022-08-30T16:07:36.306Z,101670.28
2022-08-30T16:10:08.686Z,101672.69
2022-08-30T16:12:35.463Z,101668.66
2022-08-30T16:15:02.399Z,101670.31
2022-08-30T16:17:29.327Z,101669.38
2022-08-30T16:19:58.899Z,101679.97
2022-08-30T16:22:26.599Z,101669.84
2022-08-30T16:24:53.578Z,101677.53
2022-08-30T16:27:23.678Z,101676.66
2022-08-30T16:29:50.783Z,101675.06
2022-08-30T16:32:17.998Z,101673.94
2022-08-30T16:34:45.186Z,101674.00
2022-08-30T16:37:12.102Z,101671.97
2022-08-30T16:39:38.992Z,101672.00
2022-08-30T16:42:06.825Z,101673.16
2022-08-30T16:44:35.186Z,101667.91
2022-08-30T16:47:02.756Z,101676.47
2022-08-30T16:49:29.790Z,101671.22
2022-08-30T16:51:56.641Z,101674.09
2022-08-30T16:54:23.683Z,101666.38
2022-08-30T16:56:50.724Z,101677.78
2022-08-30T16:59:17.859Z,101672.91
2022-08-30T17:01:48.122Z,101674.94
2022-08-30T17:04:18.485Z,101674.19
2022-08-30T17:06:46.741Z,101669.69
2022-08-30T17:09:15.104Z,101675.03
2022-08-30T17:11:42.868Z,101672.59
2022-08-30T17:14:09.824Z,101670.13
2022-08-30T17:16:38.072Z,101669.75
2022-08-30T17:19:07.529Z,101663.66
2022-08-30T17:21:35.328Z,101675.47
2022-08-30T17:24:03.254Z,101673.84
2022-08-30T17:26:31.220Z,101671.00
2022-08-30T17:28:58.202Z,101678.69
2022-08-30T17:31:29.282Z,101680.34
2022-08-30T17:34:01.170Z,101676.25
2022-08-30T17:36:37.027Z,101687.59
2022-08-30T17:39:10.575Z,101697.34
2022-08-30T17:41:39.141Z,101702.94
2022-08-30T17:44:06.154Z,101700.94
2022-08-30T17:46:35.072Z,101703.28
2022-08-30T17:49:02.498Z,101701.22
2022-08-30T17:51:31.536Z,101707.38
2022-08-30T17:53:58.758Z,101713.78
2022-08-30T17:56:35.282Z,101708.44
2022-08-30T17:59:04.926Z,101717.75
2022-08-30T18:01:31.991Z,101722.00
2022-08-30T18:04:02.021Z,101718.38
2022-08-30T18:06:34.740Z,101728.13
2022-08-30T18:09:01.771Z,101732.53
2022-08-30T18:11:28.566Z,101728.84
2022-08-30T18:13:55.530Z,101744.94
2022-08-30T18:16:26.508Z,101745.25
2022-08-30T18:18:57.243Z,101741.94
2022-08-30T18:21:25.302Z,101747.69
2022-08-30T18:23:53.771Z,101743.97
2022-08-30T18:26:22.198Z,101754.53
2022-08-30T18:28:51.707Z,101765.47
2022-08-30T18:31:18.589Z,101766.22
2022-08-30T18:33:47.029Z,101767.34
2022-08-30T18:36:14.229Z,101777.16
2022-08-30T18:38:42.556Z,101778.06
2022-08-30T18:41:16.668Z,101768.03
2022-08-30T18:43:44.001Z,101778.22
2022-08-30T18:46:15.720Z,101777.97
2022-08-30T18:48:45.231Z,101781.19
2022-08-30T18:51:14.617Z,101783.22
2022-08-30T18:53:42.688Z,101785.53
2022-08-30T18:56:12.974Z,101784.28
2022-08-30T18:58:40.515Z,101786.13
2022-08-30T19:01:12.610Z,101791.81
2022-08-30T19:03:40.129Z,101784.84
2022-08-30T19:06:11.733Z,101784.31
2022-08-30T19:08:40.355Z,101785.53
2022-08-30T19:11:07.804Z,101792.78
2022-08-30T19:13:37.590Z,101799.13
2022-08-30T19:16:04.728Z,101804.88
2022-08-30T19:18:32.640Z,101807.22
2022-08-30T19:20:59.954Z,101802.31
2022-08-30T19:23:33.053Z,101808.34
2022-08-30T19:26:01.006Z,101813.44
2022-08-30T19:28:28.289Z,101808.78
2022-08-30T19:31:00.989Z,101804.66
2022-08-30T19:33:28.161Z,101811.63
2022-08-30T19:35:55.207Z,101817.28
2022-08-30T19:38:22.369Z,101814.81
2022-08-30T19:40:54.431Z,101808.75
2022-08-30T19:43:21.831Z,101811.34
2022-08-30T19:45:53.817Z,101804.44
2022-08-30T19:48:32.712Z,101798.78
2022-08-30T19:51:06.887Z,101805.94
2022-08-30T19:53:33.870Z,101802.50
2022-08-30T19:56:01.028Z,101802.81
2022-08-30T19:58:30.296Z,101814.91
2022-08-30T20:01:10.863Z,101805.19
2022-08-30T20:03:41.672Z,101811.50
2022-08-30T20:06:09.025Z,101806.66
2022-08-30T20:08:36.043Z,101808.69
2022-08-30T20:11:03.002Z,101819.34
2022-08-30T20:13:33.889Z,101811.09
2022-08-30T20:16:01.800Z,101816.13
2022-08-30T20:18:29.169Z,101812.59
2022-08-30T20:20:57.742Z,101822.16
2022-08-30T20:23:25.613Z,101818.38
2022-08-30T20:25:54.667Z,101810.13
2022-08-30T20:28:22.276Z,101814.91
2022-08-30T20:30:49.835Z,101808.81
2022-08-30T20:33:17.127Z,101809.09
2022-08-30T20:35:48.834Z,101815.22
2022-08-30T20:38:27.080Z,101805.25
2022-08-30T20:41:01.092Z,101800.06
2022-08-30T20:43:30.586Z,101813.72
2022-08-30T20:45:57.770Z,101816.78
2022-08-30T20:48:28.745Z,101813.97
2022-08-30T20:50:55.847Z,101818.69
2022-08-30T20:53:24.569Z,101812.16
2022-08-30T20:55:51.628Z,101812.81
2022-08-30T20:58:18.681Z,101822.88
2022-08-30T21:00:50.173Z,101825.97
2022-08-30T21:03:27.701Z,101825.38
2022-08-30T21:05:55.381Z,101817.44
2022-08-30T21:08:22.402Z,101823.94
2022-08-30T21:10:50.741Z,101834.25
2022-08-30T21:13:18.030Z,101835.34
2022-08-30T21:15:46.159Z,101827.97
2022-08-30T21:18:13.678Z,101832.69
2022-08-30T21:20:40.713Z,101832.59
2022-08-30T21:23:07.740Z,101829.97
2022-08-30T21:25:37.380Z,101834.34
2022-08-30T21:28:05.729Z,101823.94
2022-08-30T21:30:32.647Z,101830.06
2022-08-30T21:33:00.373Z,101824.59
2022-08-30T21:35:46.624Z,101808.22
2022-08-30T21:38:14.309Z,101820.03
2022-08-30T21:40:41.632Z,101820.41
2022-08-30T21:43:10.779Z,101838.50
2022-08-30T21:45:38.477Z,101832.78
2022-08-30T21:48:05.603Z,101820.84
2022-08-30T21:50:32.492Z,101829.78
2022-08-30T21:52:59.425Z,101827.22
2022-08-30T21:55:26.911Z,101824.84
2022-08-30T21:57:54.860Z,101830.38
2022-08-30T22:00:23.160Z,101820.69
2022-08-30T22:02:53.297Z,101828.97
2022-08-30T22:05:20.582Z,101820.41
2022-08-30T22:07:47.533Z,101832.66
2022-08-30T22:10:14.371Z,101818.44
2022-08-30T22:12:41.464Z,101819.66
2022-08-30T22:15:09.447Z,101823.56
2022-08-30T22:17:37.699Z,101822.16
2022-08-30T22:20:06.177Z,101821.13
2022-08-30T22:22:33.126Z,101819.13
2022-08-30T22:25:00.040Z,101832.75
2022-08-30T22:27:26.910Z,101828.44
2022-08-30T22:29:53.801Z,101829.25
2022-08-30T22:32:21.220Z,101821.31
2022-08-30T22:34:50.351Z,101819.34
2022-08-30T22:37:17.235Z,101824.88
2022-08-30T22:39:44.097Z,101820.63
2022-08-30T22:42:11.051Z,101827.81
2022-08-30T22:44:37.924Z,101817.94
2022-08-30T22:47:05.044Z,101822.19
2022-08-30T22:49:32.009Z,101815.09
2022-08-30T22:52:00.215Z,101809.38
2022-08-30T22:54:27.112Z,101821.94
2022-08-30T22:56:53.954Z,101811.94
2022-08-30T22:59:20.833Z,101817.81
2022-08-30T23:01:58.384Z,101811.25
2022-08-30T23:04:25.747Z,101805.13
2022-08-30T23:06:52.724Z,101819.91
2022-08-30T23:09:21.091Z,101824.63
2022-08-30T23:11:48.040Z,101817.69
2022-08-30T23:14:14.874Z,101820.03
2022-08-30T23:16:41.743Z,101807.59
2022-08-30T23:19:09.147Z,101817.56
2022-08-30T23:21:36.063Z,101817.56
2022-08-30T23:24:21.903Z,101817.91
2022-08-30T23:27:08.605Z,101817.44
2022-08-30T23:29:54.508Z,101815.56
2022-08-30T23:32:40.545Z,101812.28
2022-08-30T23:35:29.885Z,101811.69
2022-08-30T23:38:16.465Z,101810.97
2022-08-30T23:41:01.727Z,101818.84
2022-08-30T23:43:48.466Z,101814.28
2022-08-30T23:46:34.137Z,101821.06
2022-08-30T23:49:19.782Z,101827.06
2022-08-30T23:52:04.977Z,101822.25
2022-08-30T23:54:50.216Z,101817.91
2022-08-30T23:57:35.525Z,101814.47
